Time;durP1;ratioP1;P1;durP2;ratioP2;P2;SDS_P1;SDS_P2;PMS_P1;PMS_P2;Temp;Humidity;BMP_temperature;BMP_pressure;BME280_temperature;BME280_humidity;BME280_pressure;Samples;Min_cycle;Max_cycle;Signal;HPM_P1;HPM_P2
2023/12/23 00:00:00;;;;;;;9.80;2.27;;;8.60;99.90;;;;;;5138262;27;20872;-66
2023/12/23 00:02:27;;;;;;;1.73;0.90;;;8.60;99.90;;;;;;5138580;27;20442;-66
2023/12/23 00:04:55;;;;;;;3.43;0.80;;;8.60;99.90;;;;;;5120781;27;20430;-66
2023/12/23 00:07:22;;;;;;;5.17;0.87;;;8.60;99.90;;;;;;5139451;27;20449;-66
2023/12/23 00:09:50;;;;;;;3.80;0.90;;;8.60;99.90;;;;;;5138644;27;20535;-66
2023/12/23 00:12:19;;;;;;;2.50;1.00;;;8.70;99.90;;;;;;5138872;27;20442;-66
2023/12/23 00:14:45;;;;;;;3.43;0.60;;;8.60;99.90;;;;;;5138921;27;20446;-66
2023/12/23 00:17:12;;;;;;;6.73;1.30;;;8.60;99.90;;;;;;5138896;27;20442;-66
2023/12/23 00:19:39;;;;;;;2.13;0.73;;;8.60;99.90;;;;;;5138875;27;20454;-66
2023/12/23 00:22:06;;;;;;;3.27;0.70;;;8.50;99.90;;;;;;5138324;27;20524;-66
2023/12/23 00:24:33;;;;;;;4.60;1.10;;;8.50;99.90;;;;;;5138539;27;20959;-66
2023/12/23 00:27:00;;;;;;;2.27;0.83;;;8.50;99.90;;;;;;5139043;27;20453;-66
2023/12/23 00:29:26;;;;;;;3.23;0.83;;;8.50;99.90;;;;;;5138549;27;20497;-65
2023/12/23 00:31:53;;;;;;;3.60;0.80;;;8.50;99.90;;;;;;5138431;27;20486;-66
2023/12/23 00:34:20;;;;;;;5.17;1.10;;;8.40;99.90;;;;;;5138474;27;20446;-66
2023/12/23 00:36:48;;;;;;;1.93;1.10;;;8.40;99.90;;;;;;5120636;27;20448;-66
2023/12/23 00:39:15;;;;;;;6.23;1.37;;;8.40;99.90;;;;;;5138524;27;20466;-66
2023/12/23 00:41:42;;;;;;;3.20;1.13;;;8.40;99.90;;;;;;5138699;27;20526;-66
2023/12/23 00:44:10;;;;;;;2.57;0.80;;;8.50;99.90;;;;;;5137726;27;20442;-66
2023/12/23 00:46:37;;;;;;;2.20;0.97;;;8.40;99.90;;;;;;5119831;27;20442;-66
2023/12/23 00:49:05;;;;;;;4.60;0.90;;;8.40;99.90;;;;;;5137869;27;20452;-65
2023/12/23 00:51:32;;;;;;;3.77;0.87;;;8.40;99.90;;;;;;5138633;27;20445;-66
2023/12/23 00:53:59;;;;;;;4.67;0.70;;;8.50;99.90;;;;;;5138463;27;20456;-66
2023/12/23 00:56:26;;;;;;;2.40;0.87;;;8.40;99.90;;;;;;5138603;27;20446;-66
2023/12/23 00:58:52;;;;;;;6.43;1.37;;;8.50;99.90;;;;;;5137104;27;20445;-66
2023/12/23 01:01:20;;;;;;;3.43;0.90;;;8.50;99.90;;;;;;5138191;27;20492;-66
2023/12/23 01:03:47;;;;;;;2.07;0.70;;;8.50;99.90;;;;;;5144169;27;20470;-65
2023/12/23 01:06:14;;;;;;;7.13;1.27;;;8.50;99.90;;;;;;5140198;27;20950;-66
2023/12/23 01:08:42;;;;;;;2.70;0.93;;;8.50;99.90;;;;;;5136441;27;20438;-66
2023/12/23 01:11:10;;;;;;;4.67;1.00;;;8.50;99.90;;;;;;5136309;27;20879;-66
2023/12/23 01:13:37;;;;;;;5.90;1.07;;;8.60;99.90;;;;;;5137164;27;20470;-66
2023/12/23 01:16:04;;;;;;;3.00;0.93;;;8.60;99.90;;;;;;5137119;27;20442;-66
2023/12/23 01:18:32;;;;;;;6.73;1.30;;;8.60;99.90;;;;;;5119455;27;20452;-66
2023/12/23 01:20:59;;;;;;;4.80;0.73;;;8.70;99.90;;;;;;5139168;27;20474;-66
2023/12/23 01:23:26;;;;;;;3.40;0.67;;;8.60;99.90;;;;;;5138243;27;20445;-66
2023/12/23 01:25:53;;;;;;;4.70;1.30;;;8.60;99.90;;;;;;5138616;27;20441;-67
2023/12/23 01:28:19;;;;;;;6.23;1.37;;;8.60;99.90;;;;;;5138298;27;20438;-67
2023/12/23 01:30:45;;;;;;;6.13;0.90;;;8.60;99.90;;;;;;5138071;27;20454;-66
2023/12/23 01:33:12;;;;;;;7.33;1.03;;;8.60;99.90;;;;;;5139196;27;20438;-67
2023/12/23 01:35:40;;;;;;;3.10;1.10;;;8.70;99.90;;;;;;5138409;27;20196;-66
2023/12/23 01:38:06;;;;;;;4.23;1.43;;;8.70;99.90;;;;;;5138701;27;20485;-66
2023/12/23 01:40:34;;;;;;;7.07;1.07;;;8.70;99.90;;;;;;5102750;27;20528;-66
2023/12/23 01:43:00;;;;;;;5.90;1.00;;;8.70;99.90;;;;;;5138727;27;20529;-66
2023/12/23 01:45:27;;;;;;;5.73;1.27;;;8.70;99.90;;;;;;5138751;27;20445;-66
2023/12/23 01:47:56;;;;;;;3.83;1.03;;;8.70;99.90;;;;;;5138352;27;20442;-66
2023/12/23 01:50:24;;;;;;;6.13;1.30;;;8.70;99.90;;;;;;5138360;27;20473;-66
2023/12/23 01:52:54;;;;;;;3.27;0.83;;;8.70;99.90;;;;;;5119112;28;20442;-66
2023/12/23 01:55:22;;;;;;;3.90;1.37;;;8.70;99.90;;;;;;5138028;27;20850;-66
2023/12/23 01:57:48;;;;;;;5.03;1.30;;;8.70;99.90;;;;;;5137305;27;20446;-66
2023/12/23 02:00:16;;;;;;;5.40;1.77;;;8.70;99.90;;;;;;5137299;28;20468;-66
2023/12/23 02:02:43;;;;;;;4.80;1.60;;;8.70;99.90;;;;;;5137344;28;20486;-66
2023/12/23 02:05:10;;;;;;;4.30;1.27;;;8.70;99.90;;;;;;5137204;28;20931;-67
2023/12/23 02:07:38;;;;;;;6.23;1.47;;;8.80;99.90;;;;;;5136971;28;20445;-66
2023/12/23 02:10:07;;;;;;;5.93;1.80;;;8.80;99.90;;;;;;5136641;28;20469;-66
2023/12/23 02:12:40;;;;;;;8.67;1.93;;;8.80;99.90;;;;;;5137884;28;20430;-66
2023/12/23 02:15:10;;;;;;;5.13;1.30;;;8.70;99.90;;;;;;5124391;28;20422;-66
2023/12/23 02:17:39;;;;;;;10.47;1.80;;;8.70;99.90;;;;;;5137605;28;20426;-66
2023/12/23 02:20:07;;;;;;;7.17;2.03;;;8.70;99.90;;;;;;5138427;27;20461;-66
2023/12/23 02:22:35;;;;;;;4.83;2.17;;;8.70;99.90;;;;;;5122401;27;21017;-67
2023/12/23 02:25:02;;;;;;;7.70;1.63;;;8.70;99.90;;;;;;5139924;27;20442;-67
2023/12/23 02:27:34;;;;;;;7.03;1.47;;;8.80;99.90;;;;;;5139358;27;20849;-67
2023/12/23 02:30:01;;;;;;;5.90;1.63;;;8.80;99.90;;;;;;5139850;27;20468;-66
2023/12/23 02:32:30;;;;;;;7.80;3.53;;;8.90;99.90;;;;;;5139859;27;20927;-66
2023/12/23 02:34:57;;;;;;;11.50;2.17;;;8.90;99.90;;;;;;5121910;27;20465;-66
2023/12/23 02:37:24;;;;;;;10.70;2.20;;;9.00;99.90;;;;;;5139884;27;20445;-66
2023/12/23 02:39:52;;;;;;;10.07;3.33;;;9.00;99.90;;;;;;5139823;27;20457;-66
2023/12/23 02:42:19;;;;;;;10.67;2.80;;;9.10;99.90;;;;;;5139751;27;20500;-66
2023/12/23 02:44:46;;;;;;;4.70;1.67;;;9.20;99.90;;;;;;5140221;27;20441;-66
2023/12/23 02:47:12;;;;;;;11.43;2.70;;;9.20;99.90;;;;;;5139880;27;20448;-66
2023/12/23 02:49:39;;;;;;;12.63;2.43;;;9.30;99.90;;;;;;5140148;27;20458;-66
2023/12/23 02:52:06;;;;;;;7.23;2.10;;;9.40;99.90;;;;;;5140762;27;20426;-65
2023/12/23 02:54:33;;;;;;;8.47;2.33;;;9.40;99.90;;;;;;5140611;27;20854;-65
2023/12/23 02:57:01;;;;;;;5.93;2.00;;;9.50;99.90;;;;;;5140467;27;20930;-66
2023/12/23 02:59:28;;;;;;;7.77;3.00;;;9.50;99.90;;;;;;5140408;27;20457;-66
2023/12/23 03:01:55;;;;;;;9.57;2.73;;;9.50;99.90;;;;;;5140422;27;20505;-66
2023/12/23 03:04:22;;;;;;;4.47;2.30;;;9.40;99.90;;;;;;5140517;27;20963;-65
2023/12/23 03:06:49;;;;;;;8.17;2.63;;;9.50;99.90;;;;;;5140789;27;20434;-65
2023/12/23 03:09:16;;;;;;;7.70;3.10;;;9.40;99.90;;;;;;5122883;27;20459;-65
2023/12/23 03:11:43;;;;;;;11.00;3.87;;;9.50;99.90;;;;;;5141733;27;20948;-65
2023/12/23 03:14:11;;;;;;;10.90;4.80;;;9.50;99.90;;;;;;5141284;27;20441;-65
2023/12/23 03:16:38;;;;;;;9.40;5.33;;;9.50;99.90;;;;;;5141334;27;20445;-64
2023/12/23 03:19:05;;;;;;;12.43;6.43;;;9.40;99.90;;;;;;5141086;27;20453;-64
2023/12/23 03:21:31;;;;;;;10.20;7.10;;;9.40;99.90;;;;;;5142815;27;20509;-65
2023/12/23 03:23:58;;;;;;;11.97;7.57;;;9.40;99.90;;;;;;5138785;27;20864;-65
2023/12/23 03:26:25;;;;;;;15.80;7.60;;;9.40;99.90;;;;;;5138824;27;20454;-65
2023/12/23 03:28:53;;;;;;;8.80;6.53;;;9.40;99.90;;;;;;5140175;27;20449;-64
2023/12/23 03:31:21;;;;;;;15.87;7.57;;;9.30;99.90;;;;;;5144750;27;20438;-65
2023/12/23 03:33:48;;;;;;;11.53;9.00;;;9.40;99.90;;;;;;5145845;27;20446;-65
2023/12/23 03:36:17;;;;;;;16.00;8.10;;;9.40;99.90;;;;;;5127370;27;20448;-65
2023/12/23 03:38:43;;;;;;;8.90;6.90;;;9.30;99.90;;;;;;5144765;27;20449;-65
2023/12/23 03:41:11;;;;;;;11.90;6.63;;;9.30;99.90;;;;;;5143926;27;20470;-65
2023/12/23 03:43:37;;;;;;;11.50;7.77;;;9.30;99.90;;;;;;5144411;27;20449;-65
2023/12/23 03:46:05;;;;;;;9.60;6.87;;;9.30;99.90;;;;;;5143354;27;20948;-66
2023/12/23 03:48:32;;;;;;;9.60;7.20;;;9.30;99.90;;;;;;5142190;27;20438;-66
2023/12/23 03:50:59;;;;;;;15.80;7.93;;;9.30;99.90;;;;;;5140799;27;20553;-65
2023/12/23 03:53:25;;;;;;;14.43;6.90;;;9.30;99.90;;;;;;5140084;27;20965;-66
2023/12/23 03:55:52;;;;;;;11.67;6.53;;;9.30;99.90;;;;;;5140719;27;20816;-65
2023/12/23 03:58:19;;;;;;;10.30;6.53;;;9.30;99.90;;;;;;5139575;27;20445;-66
2023/12/23 04:00:47;;;;;;;13.93;7.40;;;9.30;99.90;;;;;;5121122;27;20465;-66
2023/12/23 04:03:13;;;;;;;11.67;6.07;;;9.30;99.90;;;;;;5140868;27;20481;-66
2023/12/23 04:05:42;;;;;;;13.43;7.67;;;9.30;99.90;;;;;;5139946;27;20449;-66
2023/12/23 04:08:09;;;;;;;9.27;6.37;;;9.30;99.90;;;;;;5121443;27;20948;-66
2023/12/23 04:10:36;;;;;;;8.17;6.00;;;9.30;99.90;;;;;;5139618;27;20466;-66
2023/12/23 04:13:03;;;;;;;12.33;6.50;;;9.40;99.90;;;;;;5139808;27;20445;-66
2023/12/23 04:15:30;;;;;;;10.20;5.93;;;9.40;99.90;;;;;;5139974;27;20442;-66
2023/12/23 04:17:57;;;;;;;9.17;5.47;;;9.40;99.90;;;;;;5139612;27;20438;-65
2023/12/23 04:20:24;;;;;;;8.43;5.23;;;9.40;99.90;;;;;;5139090;27;20461;-65
2023/12/23 04:22:52;;;;;;;9.80;5.73;;;9.50;99.90;;;;;;5139661;27;20482;-65
2023/12/23 04:25:19;;;;;;;13.63;5.73;;;9.50;99.90;;;;;;5139164;27;20442;-64
2023/12/23 04:27:45;;;;;;;10.13;5.17;;;9.50;99.90;;;;;;5138854;27;20438;-65
2023/12/23 04:30:13;;;;;;;8.50;5.40;;;9.50;99.90;;;;;;5138355;27;20457;-65
2023/12/23 04:32:39;;;;;;;14.03;5.40;;;9.50;99.90;;;;;;5138972;27;20430;-65
2023/12/23 04:35:06;;;;;;;6.80;4.77;;;9.50;99.90;;;;;;5120732;27;20806;-66
2023/12/23 04:37:33;;;;;;;12.90;6.10;;;9.50;99.90;;;;;;5139354;27;20927;-65
2023/12/23 04:40:01;;;;;;;7.63;5.57;;;9.40;99.90;;;;;;5138874;27;20831;-65
2023/12/23 04:42:28;;;;;;;9.53;5.57;;;9.40;99.90;;;;;;5138599;27;20480;-65
2023/12/23 04:44:55;;;;;;;9.00;4.70;;;9.50;99.90;;;;;;5138140;27;20437;-66
2023/12/23 04:47:21;;;;;;;8.20;4.77;;;9.50;99.90;;;;;;5139248;27;20442;-66
2023/12/23 04:49:48;;;;;;;10.20;4.77;;;9.40;99.90;;;;;;5138315;27;20469;-65
2023/12/23 04:52:16;;;;;;;5.90;4.23;;;9.40;99.90;;;;;;5138628;27;20873;-66
2023/12/23 04:54:44;;;;;;;7.47;4.00;;;9.50;99.90;;;;;;5121474;27;20869;-66
2023/12/23 04:57:12;;;;;;;9.80;4.43;;;9.50;99.90;;;;;;5138680;27;20939;-66
2023/12/23 04:59:39;;;;;;;13.77;4.10;;;9.50;99.90;;;;;;5118397;27;20519;-66
2023/12/23 05:02:06;;;;;;;5.17;3.60;;;9.50;99.90;;;;;;5136766;27;20481;-66
2023/12/23 05:04:32;;;;;;;8.20;3.93;;;9.50;99.90;;;;;;5118349;27;20488;-66
2023/12/23 05:06:59;;;;;;;5.67;3.73;;;9.50;99.90;;;;;;5118870;27;20438;-66
2023/12/23 05:09:26;;;;;;;8.40;4.90;;;9.50;99.90;;;;;;5137057;27;20472;-66
2023/12/23 05:11:52;;;;;;;10.40;3.40;;;9.50;99.90;;;;;;5136940;27;21007;-65
2023/12/23 05:14:20;;;;;;;8.27;3.60;;;9.60;99.90;;;;;;5138727;27;20446;-66
2023/12/23 05:16:47;;;;;;;10.67;3.83;;;9.60;99.90;;;;;;5138630;27;20966;-66
2023/12/23 05:19:14;;;;;;;4.23;2.70;;;9.60;99.90;;;;;;5139732;27;20457;-66
2023/12/23 05:21:43;;;;;;;10.37;2.97;;;9.60;99.90;;;;;;5139986;27;20927;-65
2023/12/23 05:24:10;;;;;;;5.20;3.20;;;9.60;99.90;;;;;;5139719;27;20449;-66
2023/12/23 05:26:38;;;;;;;9.47;3.20;;;9.60;99.90;;;;;;5120865;27;20446;-65
2023/12/23 05:29:05;;;;;;;5.07;2.80;;;9.60;99.90;;;;;;5140531;27;20441;-65
2023/12/23 05:31:34;;;;;;;7.70;2.83;;;9.60;99.90;;;;;;5139730;27;20441;-65
2023/12/23 05:34:00;;;;;;;6.30;3.17;;;9.60;99.90;;;;;;5140530;27;20442;-65
2023/12/23 05:36:27;;;;;;;7.80;3.03;;;9.60;99.90;;;;;;5140627;27;20442;-65
2023/12/23 05:38:54;;;;;;;5.13;2.90;;;9.60;99.90;;;;;;5142257;27;20442;-65
2023/12/23 05:41:21;;;;;;;4.30;2.80;;;9.50;99.90;;;;;;5136315;27;20464;-65
2023/12/23 05:43:48;;;;;;;10.27;3.67;;;9.60;99.90;;;;;;5136552;27;20485;-65
2023/12/23 05:46:15;;;;;;;9.83;3.43;;;9.60;99.90;;;;;;5137299;27;20446;-65
2023/12/23 05:48:43;;;;;;;13.00;4.07;;;9.60;99.90;;;;;;5137695;27;20449;-65
2023/12/23 05:51:11;;;;;;;8.53;3.20;;;9.60;99.90;;;;;;5137617;27;20987;-65
2023/12/23 05:53:38;;;;;;;8.30;4.10;;;9.60;99.90;;;;;;5138510;27;20472;-65
2023/12/23 05:56:05;;;;;;;6.17;3.67;;;9.60;99.90;;;;;;5137642;27;20419;-65
2023/12/23 05:58:32;;;;;;;16.23;3.63;;;9.60;99.90;;;;;;5138525;27;20449;-65
2023/12/23 06:00:59;;;;;;;9.00;4.37;;;9.60;99.90;;;;;;5138876;28;20453;-65
2023/12/23 06:03:26;;;;;;;8.23;3.07;;;9.60;99.90;;;;;;5139199;28;21100;-65
2023/12/23 06:05:54;;;;;;;4.57;3.13;;;9.60;99.90;;;;;;5121302;28;20442;-65
2023/12/23 06:08:21;;;;;;;9.80;3.03;;;9.60;99.90;;;;;;5139404;28;20529;-65
2023/12/23 06:10:48;;;;;;;8.43;3.03;;;9.60;99.90;;;;;;5121370;28;20975;-65
2023/12/23 06:13:14;;;;;;;7.27;3.03;;;9.60;99.90;;;;;;5139150;28;20528;-65
2023/12/23 06:15:41;;;;;;;5.60;2.77;;;9.60;99.90;;;;;;5139580;28;20461;-65
2023/12/23 06:18:09;;;;;;;11.63;3.50;;;9.60;99.90;;;;;;5138637;28;20438;-66
2023/12/23 06:20:35;;;;;;;7.80;3.63;;;9.60;99.90;;;;;;5138168;28;20466;-65
2023/12/23 06:23:04;;;;;;;8.50;3.17;;;9.60;99.90;;;;;;5138778;28;20496;-66
2023/12/23 06:25:32;;;;;;;5.20;3.67;;;9.70;99.90;;;;;;5138358;28;20486;-66
2023/12/23 06:27:59;;;;;;;9.07;3.20;;;9.70;99.90;;;;;;5138005;28;20449;-66
2023/12/23 06:30:26;;;;;;;6.67;2.90;;;9.60;99.90;;;;;;5138285;28;20514;-66
2023/12/23 06:32:53;;;;;;;7.00;3.27;;;9.70;99.90;;;;;;5137794;28;20438;-66
2023/12/23 06:35:20;;;;;;;11.20;4.03;;;9.70;99.90;;;;;;5138129;28;20449;-66
2023/12/23 06:37:46;;;;;;;7.67;3.60;;;9.70;99.90;;;;;;5137985;28;20441;-66
2023/12/23 06:40:15;;;;;;;8.73;3.80;;;9.70;99.90;;;;;;5138572;28;20469;-66
2023/12/23 06:42:42;;;;;;;5.73;3.23;;;9.70;99.90;;;;;;5138763;28;20569;-65
2023/12/23 06:45:10;;;;;;;8.07;3.23;;;9.70;99.90;;;;;;5139062;28;20453;-65
2023/12/23 06:47:37;;;;;;;6.13;3.40;;;9.70;99.90;;;;;;5138836;28;20462;-65
2023/12/23 06:50:05;;;;;;;10.80;3.40;;;9.70;99.90;;;;;;5138714;28;20465;-65
2023/12/23 06:52:32;;;;;;;8.37;3.37;;;9.70;99.90;;;;;;5137777;28;20443;-65
2023/12/23 06:54:58;;;;;;;6.20;2.97;;;9.70;99.90;;;;;;5119505;28;20474;-65
2023/12/23 06:57:27;;;;;;;13.87;4.07;;;9.70;99.90;;;;;;5138306;28;20438;-65
2023/12/23 06:59:54;;;;;;;10.23;3.80;;;9.70;99.90;;;;;;5139373;28;20462;-65
2023/12/23 07:02:22;;;;;;;9.43;3.53;;;9.80;99.90;;;;;;5138495;28;20484;-64
2023/12/23 07:04:50;;;;;;;7.37;3.57;;;9.70;99.90;;;;;;5139010;28;20498;-65
2023/12/23 07:07:16;;;;;;;5.57;3.37;;;9.70;99.90;;;;;;5140534;27;20445;-65
2023/12/23 07:09:43;;;;;;;5.60;3.63;;;9.70;99.90;;;;;;5142901;27;20458;-65
2023/12/23 07:12:10;;;;;;;6.30;3.73;;;9.70;99.90;;;;;;5142854;27;20474;-65
2023/12/23 07:14:38;;;;;;;8.30;2.60;;;9.60;99.90;;;;;;5143149;27;20851;-65
2023/12/23 07:17:05;;;;;;;10.00;3.90;;;9.60;99.90;;;;;;5142579;27;20448;-65
2023/12/23 07:19:31;;;;;;;6.60;4.10;;;9.50;99.90;;;;;;5142735;27;20465;-65
2023/12/23 07:21:58;;;;;;;10.70;4.30;;;9.50;99.90;;;;;;5142235;27;21012;-65
2023/12/23 07:24:25;;;;;;;5.30;4.20;;;9.50;99.90;;;;;;5143663;27;20481;-65
2023/12/23 07:26:51;;;;;;;11.33;4.67;;;9.50;99.90;;;;;;5143405;27;20453;-65
2023/12/23 07:29:21;;;;;;;7.80;4.20;;;9.50;99.90;;;;;;5142634;27;20454;-65
2023/12/23 07:31:49;;;;;;;8.80;4.87;;;9.50;99.90;;;;;;5142805;27;20446;-65
2023/12/23 07:34:16;;;;;;;7.53;4.40;;;9.50;99.90;;;;;;5138580;27;20927;-65
2023/12/23 07:36:42;;;;;;;5.83;4.27;;;9.50;99.90;;;;;;5140463;27;20445;-65
2023/12/23 07:39:09;;;;;;;9.20;5.17;;;9.50;99.90;;;;;;5138554;27;20462;-65
2023/12/23 07:41:36;;;;;;;6.63;4.10;;;9.50;99.90;;;;;;5137597;27;20442;-65
2023/12/23 07:44:03;;;;;;;10.10;4.63;;;9.50;99.90;;;;;;5137687;27;20482;-65
2023/12/23 07:46:29;;;;;;;9.13;4.50;;;9.50;99.90;;;;;;5137541;27;20935;-65
2023/12/23 07:48:57;;;;;;;7.90;4.27;;;9.50;99.90;;;;;;5138113;27;20477;-66
2023/12/23 07:51:24;;;;;;;10.90;5.10;;;9.50;99.90;;;;;;5141137;27;20450;-65
2023/12/23 07:53:51;;;;;;;10.60;5.27;;;9.50;99.90;;;;;;5140045;27;20457;-66
2023/12/23 07:56:17;;;;;;;8.20;4.77;;;9.40;99.90;;;;;;5138511;27;20438;-65
2023/12/23 07:58:44;;;;;;;5.73;4.67;;;9.50;99.90;;;;;;5138757;27;20434;-65
2023/12/23 08:01:11;;;;;;;9.17;4.93;;;9.50;99.90;;;;;;5120246;27;20486;-65
2023/12/23 08:03:38;;;;;;;9.00;5.17;;;9.50;99.90;;;;;;5138285;27;21021;-65
2023/12/23 08:06:06;;;;;;;12.57;5.53;;;9.40;99.90;;;;;;5138852;27;20449;-65
2023/12/23 08:08:33;;;;;;;10.67;5.83;;;9.40;99.90;;;;;;5139054;27;20438;-65
2023/12/23 08:11:00;;;;;;;14.73;5.70;;;9.40;99.90;;;;;;5138272;27;20458;-65
2023/12/23 08:13:28;;;;;;;9.87;4.73;;;9.40;99.90;;;;;;5120300;27;20810;-65
2023/12/23 08:15:55;;;;;;;10.73;6.20;;;9.50;99.90;;;;;;5138893;27;20446;-66
2023/12/23 08:18:22;;;;;;;8.57;4.63;;;9.50;99.90;;;;;;5139069;27;20445;-65
2023/12/23 08:20:49;;;;;;;7.97;4.97;;;9.50;99.90;;;;;;5139826;27;20469;-65
2023/12/23 08:23:17;;;;;;;10.50;5.73;;;9.60;99.90;;;;;;5139334;27;20854;-66
2023/12/23 08:25:46;;;;;;;8.97;5.10;;;9.60;99.90;;;;;;5140539;27;20437;-66
2023/12/23 08:28:13;;;;;;;7.13;4.43;;;9.60;99.90;;;;;;5140214;27;20457;-65
2023/12/23 08:30:39;;;;;;;8.53;4.07;;;9.60;99.90;;;;;;5139834;27;20470;-66
2023/12/23 08:33:06;;;;;;;8.27;4.97;;;9.70;99.90;;;;;;5140541;27;20458;-66
2023/12/23 08:35:33;;;;;;;15.33;4.93;;;9.70;99.90;;;;;;5139669;27;20446;-66
2023/12/23 08:37:59;;;;;;;10.97;4.40;;;9.80;99.90;;;;;;5139202;27;20487;-66
2023/12/23 08:40:28;;;;;;;9.40;3.33;;;9.80;99.90;;;;;;5139102;27;20466;-66
2023/12/23 08:42:55;;;;;;;10.40;6.03;;;9.90;99.90;;;;;;5138758;27;20865;-66
2023/12/23 08:45:23;;;;;;;7.20;3.77;;;9.90;99.90;;;;;;5138968;27;20799;-66
2023/12/23 08:47:49;;;;;;;5.47;3.00;;;9.90;99.90;;;;;;5139125;27;20441;-66
2023/12/23 08:50:20;;;;;;;7.17;3.77;;;9.90;99.90;;;;;;5139327;27;20510;-66
2023/12/23 08:52:47;;;;;;;9.90;3.80;;;10.00;99.90;;;;;;5138086;27;20450;-66
2023/12/23 08:55:14;;;;;;;12.23;3.97;;;10.00;99.90;;;;;;5120515;27;20450;-66
2023/12/23 08:57:42;;;;;;;4.20;3.07;;;10.00;99.90;;;;;;5139000;27;20822;-66
2023/12/23 09:00:10;;;;;;;6.53;2.97;;;10.10;99.90;;;;;;5138947;27;20464;-66
2023/12/23 09:02:37;;;;;;;5.90;3.40;;;10.10;99.90;;;;;;5139080;27;20438;-66
2023/12/23 09:05:04;;;;;;;12.17;3.90;;;10.20;99.90;;;;;;5138904;27;20990;-66
2023/12/23 09:07:31;;;;;;;11.03;3.27;;;10.20;99.90;;;;;;5139509;27;21022;-66
2023/12/23 09:09:58;;;;;;;8.40;3.23;;;10.20;99.90;;;;;;5138829;27;20466;-66
2023/12/23 09:12:25;;;;;;;9.97;3.60;;;10.20;99.90;;;;;;5139764;27;20445;-66
2023/12/23 09:14:53;;;;;;;3.30;2.70;;;10.30;99.90;;;;;;5138203;27;20494;-66
2023/12/23 09:17:20;;;;;;;7.57;3.00;;;10.30;99.90;;;;;;5119940;27;20870;-66
2023/12/23 09:19:46;;;;;;;8.57;3.27;;;10.30;99.90;;;;;;5138116;27;20461;-66
2023/12/23 09:22:13;;;;;;;7.63;3.13;;;10.30;99.90;;;;;;5120334;27;20449;-66
2023/12/23 09:24:43;;;;;;;9.83;2.80;;;10.30;99.90;;;;;;5138367;27;20470;-66
2023/12/23 09:27:10;;;;;;;5.07;2.70;;;10.20;99.90;;;;;;5139038;27;20441;-66
2023/12/23 09:29:39;;;;;;;6.30;2.60;;;10.30;99.90;;;;;;5137880;27;20462;-66
2023/12/23 09:32:08;;;;;;;13.50;2.63;;;10.30;99.90;;;;;;5138189;27;20979;-66
2023/12/23 09:34:35;;;;;;;6.27;2.40;;;10.30;99.90;;;;;;5138484;27;20441;-66
2023/12/23 09:37:02;;;;;;;15.90;3.40;;;10.30;99.90;;;;;;5139000;27;20923;-66
2023/12/23 09:39:29;;;;;;;13.37;3.13;;;10.30;99.90;;;;;;5138772;27;20994;-66
2023/12/23 09:41:56;;;;;;;7.23;2.60;;;10.30;99.90;;;;;;5138115;27;20438;-66
2023/12/23 09:44:24;;;;;;;12.37;2.63;;;10.40;99.90;;;;;;5138226;27;20474;-66
2023/12/23 09:46:51;;;;;;;4.67;2.33;;;10.40;99.90;;;;;;5138307;27;20461;-66
2023/12/23 09:49:19;;;;;;;5.70;2.13;;;10.50;99.90;;;;;;5138999;27;20481;-66
2023/12/23 09:51:48;;;;;;;6.53;3.00;;;10.50;99.90;;;;;;5138052;27;20442;-66
2023/12/23 09:54:20;;;;;;;8.90;3.03;;;10.50;99.90;;;;;;5138115;27;20441;-66
2023/12/23 09:56:48;;;;;;;3.20;2.30;;;10.50;99.90;;;;;;5138362;27;20438;-66
2023/12/23 09:59:15;;;;;;;5.30;2.13;;;10.50;99.90;;;;;;5138331;27;21002;-66
2023/12/23 10:01:41;;;;;;;8.67;2.70;;;10.50;99.90;;;;;;5138645;28;20446;-66
2023/12/23 10:04:08;;;;;;;6.50;2.80;;;10.50;99.90;;;;;;5139215;28;20568;-66
2023/12/23 10:06:36;;;;;;;4.37;2.57;;;10.40;99.90;;;;;;5144756;28;20931;-66
2023/12/23 10:09:04;;;;;;;6.47;3.03;;;10.40;99.90;;;;;;5138110;28;20442;-66
2023/12/23 10:11:31;;;;;;;4.60;3.57;;;10.20;99.90;;;;;;5139767;28;20861;-66
2023/12/23 10:13:58;;;;;;;7.13;3.17;;;10.20;99.90;;;;;;5136050;28;20957;-66
2023/12/23 10:16:25;;;;;;;9.37;3.70;;;10.10;99.90;;;;;;5135763;28;20445;-66
2023/12/23 10:18:52;;;;;;;5.17;3.50;;;10.10;99.90;;;;;;5135919;28;20520;-66
2023/12/23 10:21:19;;;;;;;12.27;3.93;;;10.10;99.90;;;;;;5135885;28;20442;-65
2023/12/23 10:23:47;;;;;;;6.47;3.60;;;10.10;99.90;;;;;;5137021;28;20473;-66
2023/12/23 10:26:15;;;;;;;6.90;3.77;;;10.10;99.90;;;;;;5137674;28;20449;-65
2023/12/23 10:28:43;;;;;;;5.70;3.97;;;10.00;99.90;;;;;;5119518;28;20854;-65
2023/12/23 10:31:13;;;;;;;6.33;3.73;;;9.90;99.90;;;;;;5137699;28;20477;-65
2023/12/23 10:33:45;;;;;;;9.07;4.20;;;9.90;99.90;;;;;;5138282;28;20486;-65
2023/12/23 10:36:13;;;;;;;4.47;3.90;;;9.90;99.90;;;;;;5139094;28;20895;-65
2023/12/23 10:38:47;;;;;;;8.37;4.30;;;9.90;99.90;;;;;;5139696;28;20466;-65
2023/12/23 10:41:20;;;;;;;6.37;5.10;;;9.90;99.90;;;;;;5139464;27;20884;-65
2023/12/23 10:43:47;;;;;;;9.10;3.60;;;9.80;99.90;;;;;;5142604;27;20469;-65
2023/12/23 10:46:15;;;;;;;7.83;4.27;;;9.80;99.90;;;;;;5142522;27;20437;-65
2023/12/23 10:48:43;;;;;;;9.67;4.07;;;9.80;99.90;;;;;;5144222;27;20438;-65
2023/12/23 10:51:12;;;;;;;7.00;4.00;;;9.80;99.90;;;;;;5143547;27;20458;-65
2023/12/23 10:53:39;;;;;;;7.63;4.10;;;9.80;99.90;;;;;;5142786;27;20438;-66
2023/12/23 10:56:08;;;;;;;4.13;3.20;;;9.80;99.90;;;;;;5142034;27;20533;-65
2023/12/23 10:58:36;;;;;;;9.00;4.53;;;9.90;99.90;;;;;;5124322;27;20488;-66
2023/12/23 11:01:04;;;;;;;6.43;3.77;;;9.90;99.90;;;;;;5141946;27;20465;-65
2023/12/23 11:03:32;;;;;;;4.37;3.97;;;9.90;99.90;;;;;;5141794;27;20438;-65
2023/12/23 11:06:00;;;;;;;10.57;4.57;;;9.90;99.90;;;;;;5141962;27;20486;-66
2023/12/23 11:08:29;;;;;;;4.90;3.47;;;10.00;99.90;;;;;;5141811;27;20442;-65
2023/12/23 11:10:57;;;;;;;6.03;4.50;;;10.10;99.90;;;;;;5141758;27;20462;-66
2023/12/23 11:13:29;;;;;;;4.73;3.43;;;10.10;99.90;;;;;;5141423;27;21011;-66
2023/12/23 11:16:10;;;;;;;8.80;2.90;;;10.10;99.90;;;;;;5140686;27;20979;-66
2023/12/23 11:18:38;;;;;;;5.37;3.27;;;10.20;99.90;;;;;;5142145;27;20426;-66
2023/12/23 11:21:15;;;;;;;3.80;2.70;;;10.20;99.90;;;;;;5141625;27;20469;-66
2023/12/23 11:23:42;;;;;;;8.03;2.50;;;10.30;99.90;;;;;;5141164;27;20469;-66
2023/12/23 11:26:42;;;;;;;6.73;2.80;;;10.30;99.90;;;;;;5141472;27;20445;-66
2023/12/23 11:29:10;;;;;;;6.00;3.10;;;10.40;99.90;;;;;;5140912;27;20430;-66
2023/12/23 11:31:38;;;;;;;5.03;3.20;;;10.40;99.90;;;;;;5140934;27;20449;-66
2023/12/23 11:34:14;;;;;;;7.80;2.83;;;10.50;99.90;;;;;;5141049;27;20430;-66
2023/12/23 11:36:42;;;;;;;7.20;2.40;;;10.50;99.90;;;;;;5122755;27;20479;-66
2023/12/23 11:39:12;;;;;;;5.03;2.73;;;10.60;99.90;;;;;;5141458;27;20467;-66
2023/12/23 11:41:41;;;;;;;8.53;2.70;;;10.60;99.90;;;;;;5128482;27;20445;-66
2023/12/23 11:44:10;;;;;;;4.30;2.67;;;10.60;99.90;;;;;;5146489;27;20478;-66
2023/12/23 11:46:39;;;;;;;7.03;1.90;;;10.70;99.90;;;;;;5144189;27;20438;-66
2023/12/23 11:49:08;;;;;;;4.53;2.27;;;10.70;99.90;;;;;;5143555;27;20477;-66
2023/12/23 11:51:36;;;;;;;6.40;2.37;;;10.80;99.90;;;;;;5142824;27;20859;-66
2023/12/23 11:54:03;;;;;;;3.97;2.17;;;10.80;99.90;;;;;;5142121;27;20449;-66
2023/12/23 11:56:29;;;;;;;5.30;2.70;;;10.80;99.90;;;;;;5141568;27;20429;-66
2023/12/23 11:58:58;;;;;;;5.60;2.13;;;10.90;99.90;;;;;;5141120;27;20438;-66
2023/12/23 12:01:25;;;;;;;6.07;2.10;;;10.90;99.90;;;;;;5140415;27;20450;-66
2023/12/23 12:03:55;;;;;;;7.13;2.37;;;10.90;99.90;;;;;;5140355;27;20449;-66
2023/12/23 12:06:22;;;;;;;4.17;2.10;;;10.90;99.90;;;;;;5140179;27;20815;-66
2023/12/23 12:08:49;;;;;;;13.00;2.47;;;11.00;99.90;;;;;;5140001;27;20442;-66
2023/12/23 12:11:17;;;;;;;3.67;1.73;;;11.00;99.90;;;;;;5140170;27;20449;-66
2023/12/23 12:13:46;;;;;;;3.83;1.67;;;11.00;99.90;;;;;;5140236;27;20930;-66
2023/12/23 12:16:13;;;;;;;8.47;2.83;;;11.00;99.90;;;;;;5121769;27;20927;-66
2023/12/23 12:18:40;;;;;;;3.30;2.00;;;11.10;99.90;;;;;;5143970;27;20449;-66
2023/12/23 12:21:09;;;;;;;5.40;2.00;;;11.00;99.90;;;;;;5144391;27;20465;-66
2023/12/23 12:23:38;;;;;;;3.87;2.17;;;11.00;99.90;;;;;;5139947;27;20438;-66
2023/12/23 12:26:05;;;;;;;1.70;1.30;;;11.00;99.90;;;;;;5139660;27;20478;-66
2023/12/23 12:28:32;;;;;;;7.90;1.90;;;11.00;99.90;;;;;;5138913;27;20794;-66
2023/12/23 12:31:10;;;;;;;7.90;1.87;;;11.00;99.90;;;;;;5121165;27;20461;-66
2023/12/23 12:33:40;;;;;;;3.93;1.60;;;11.10;99.90;;;;;;5138587;27;20962;-66
2023/12/23 12:36:13;;;;;;;6.83;1.90;;;11.10;99.90;;;;;;5139275;27;20422;-66
2023/12/23 12:38:41;;;;;;;5.73;1.70;;;11.10;99.90;;;;;;5139018;27;20452;-66
2023/12/23 12:41:09;;;;;;;7.33;2.23;;;11.10;99.90;;;;;;5138529;27;20461;-66
2023/12/23 12:43:38;;;;;;;11.20;1.90;;;11.10;99.90;;;;;;5138477;27;20438;-66
2023/12/23 12:46:05;;;;;;;3.10;1.60;;;11.10;99.90;;;;;;5138422;27;20485;-66
2023/12/23 12:48:32;;;;;;;7.57;1.70;;;11.20;99.90;;;;;;5147147;27;20434;-66
2023/12/23 12:50:59;;;;;;;3.17;1.40;;;11.20;99.90;;;;;;5144909;27;20466;-66
2023/12/23 12:53:30;;;;;;;4.63;1.40;;;11.20;99.90;;;;;;5138137;27;20899;-67